sensor_id;sensor_type;location;lat;lon;timestamp;P1;durP1;ratioP1;P2;durP2;ratioP2
11191;SDS011;5652;48.406;10.820;2022-09-09T00:01:37;3.20;;;2.20;;
11191;SDS011;5652;48.406;10.820;2022-09-09T00:04:08;4.70;;;2.15;;
11191;SDS011;5652;48.406;10.820;2022-09-09T00:06:43;2.10;;;1.88;;
11191;SDS011;5652;48.406;10.820;2022-09-09T00:09:12;3.53;;;1.83;;
11191;SDS011;5652;48.406;10.820;2022-09-09T00:11:40;4.18;;;2.30;;
11191;SDS011;5652;48.406;10.820;2022-09-09T00:14:12;2.63;;;2.30;;
11191;SDS011;5652;48.406;10.820;2022-09-09T00:16:41;3.42;;;2.10;;
11191;SDS011;5652;48.406;10.820;2022-09-09T00:19:13;4.23;;;1.90;;
11191;SDS011;5652;48.406;10.820;2022-09-09T00:21:47;4.80;;;2.10;;
11191;SDS011;5652;48.406;10.820;2022-09-09T00:24:23;3.83;;;2.25;;
11191;SDS011;5652;48.406;10.820;2022-09-09T00:26:52;2.72;;;1.85;;
11191;SDS011;5652;48.406;10.820;2022-09-09T00:29:23;2.88;;;2.00;;
11191;SDS011;5652;48.406;10.820;2022-09-09T00:31:56;3.72;;;2.03;;
11191;SDS011;5652;48.406;10.820;2022-09-09T00:34:28;2.63;;;1.92;;
11191;SDS011;5652;48.406;10.820;2022-09-09T00:36:56;3.50;;;2.00;;
11191;SDS011;5652;48.406;10.820;2022-09-09T00:39:27;2.10;;;1.73;;
11191;SDS011;5652;48.406;10.820;2022-09-09T00:41:59;2.90;;;1.80;;
11191;SDS011;5652;48.406;10.820;2022-09-09T00:44:30;2.17;;;1.70;;
11191;SDS011;5652;48.406;10.820;2022-09-09T00:47:06;4.18;;;2.03;;
11191;SDS011;5652;48.406;10.820;2022-09-09T00:49:39;2.67;;;1.67;;
11191;SDS011;5652;48.406;10.820;2022-09-09T00:52:15;2.65;;;1.90;;
11191;SDS011;5652;48.406;10.820;2022-09-09T00:54:46;3.47;;;1.80;;
11191;SDS011;5652;48.406;10.820;2022-09-09T00:57:19;3.22;;;1.83;;
11191;SDS011;5652;48.406;10.820;2022-09-09T00:59:50;5.50;;;2.10;;
11191;SDS011;5652;48.406;10.820;2022-09-09T01:02:28;4.30;;;1.92;;
11191;SDS011;5652;48.406;10.820;2022-09-09T01:04:59;3.00;;;1.87;;
11191;SDS011;5652;48.406;10.820;2022-09-09T01:07:29;3.47;;;1.90;;
11191;SDS011;5652;48.406;10.820;2022-09-09T01:09:57;3.80;;;1.92;;
11191;SDS011;5652;48.406;10.820;2022-09-09T01:12:27;2.63;;;1.90;;
11191;SDS011;5652;48.406;10.820;2022-09-09T01:14:57;2.70;;;1.70;;
11191;SDS011;5652;48.406;10.820;2022-09-09T01:17:30;1.77;;;1.58;;
11191;SDS011;5652;48.406;10.820;2022-09-09T01:20:02;2.25;;;1.60;;
11191;SDS011;5652;48.406;10.820;2022-09-09T01:22:34;2.50;;;1.70;;
11191;SDS011;5652;48.406;10.820;2022-09-09T01:27:45;2.43;;;2.00;;
11191;SDS011;5652;48.406;10.820;2022-09-09T01:30:13;2.28;;;1.70;;
11191;SDS011;5652;48.406;10.820;2022-09-09T01:32:42;4.00;;;1.95;;
11191;SDS011;5652;48.406;10.820;2022-09-09T01:35:12;2.50;;;1.80;;
11191;SDS011;5652;48.406;10.820;2022-09-09T01:37:42;4.20;;;1.90;;
11191;SDS011;5652;48.406;10.820;2022-09-09T01:40:09;3.75;;;1.70;;
11191;SDS011;5652;48.406;10.820;2022-09-09T01:42:36;2.00;;;1.60;;
11191;SDS011;5652;48.406;10.820;2022-09-09T01:45:05;3.90;;;1.90;;
11191;SDS011;5652;48.406;10.820;2022-09-09T01:47:33;3.78;;;1.90;;
11191;SDS011;5652;48.406;10.820;2022-09-09T01:50:02;1.63;;;1.50;;
11191;SDS011;5652;48.406;10.820;2022-09-09T01:52:30;2.20;;;1.70;;
11191;SDS011;5652;48.406;10.820;2022-09-09T01:54:57;2.25;;;1.80;;
11191;SDS011;5652;48.406;10.820;2022-09-09T01:57:25;2.45;;;1.58;;
11191;SDS011;5652;48.406;10.820;2022-09-09T01:59:58;3.53;;;1.58;;
11191;SDS011;5652;48.406;10.820;2022-09-09T02:02:31;2.47;;;1.60;;
11191;SDS011;5652;48.406;10.820;2022-09-09T02:05:03;2.50;;;1.70;;
11191;SDS011;5652;48.406;10.820;2022-09-09T02:07:37;3.00;;;1.83;;
11191;SDS011;5652;48.406;10.820;2022-09-09T02:10:06;4.57;;;1.90;;
11191;SDS011;5652;48.406;10.820;2022-09-09T02:12:36;2.17;;;1.70;;
11191;SDS011;5652;48.406;10.820;2022-09-09T02:15:07;2.35;;;1.75;;
11191;SDS011;5652;48.406;10.820;2022-09-09T02:17:39;1.92;;;1.70;;
11191;SDS011;5652;48.406;10.820;2022-09-09T02:20:10;1.90;;;1.70;;
11191;SDS011;5652;48.406;10.820;2022-09-09T02:22:39;4.50;;;2.28;;
11191;SDS011;5652;48.406;10.820;2022-09-09T02:25:09;2.10;;;1.90;;
11191;SDS011;5652;48.406;10.820;2022-09-09T02:27:37;3.05;;;1.95;;
11191;SDS011;5652;48.406;10.820;2022-09-09T02:30:06;3.90;;;2.00;;
11191;SDS011;5652;48.406;10.820;2022-09-09T02:32:33;4.57;;;1.73;;
11191;SDS011;5652;48.406;10.820;2022-09-09T02:35:04;3.10;;;1.73;;
11191;SDS011;5652;48.406;10.820;2022-09-09T02:37:34;3.28;;;1.73;;
11191;SDS011;5652;48.406;10.820;2022-09-09T02:40:03;3.70;;;1.55;;
11191;SDS011;5652;48.406;10.820;2022-09-09T02:42:30;1.67;;;1.55;;
11191;SDS011;5652;48.406;10.820;2022-09-09T02:44:58;4.47;;;1.80;;
11191;SDS011;5652;48.406;10.820;2022-09-09T02:47:26;5.55;;;1.63;;
11191;SDS011;5652;48.406;10.820;2022-09-09T02:50:00;1.95;;;1.67;;
11191;SDS011;5652;48.406;10.820;2022-09-09T02:52:32;3.47;;;1.70;;
11191;SDS011;5652;48.406;10.820;2022-09-09T02:55:03;6.18;;;1.83;;
11191;SDS011;5652;48.406;10.820;2022-09-09T02:57:32;3.72;;;1.65;;
11191;SDS011;5652;48.406;10.820;2022-09-09T03:00:00;2.95;;;1.80;;
11191;SDS011;5652;48.406;10.820;2022-09-09T03:02:28;2.60;;;1.90;;
11191;SDS011;5652;48.406;10.820;2022-09-09T03:04:55;3.20;;;1.70;;
11191;SDS011;5652;48.406;10.820;2022-09-09T03:07:23;3.42;;;1.90;;
11191;SDS011;5652;48.406;10.820;2022-09-09T03:09:51;5.05;;;1.80;;
11191;SDS011;5652;48.406;10.820;2022-09-09T03:12:19;5.57;;;1.77;;
11191;SDS011;5652;48.406;10.820;2022-09-09T03:14:47;5.90;;;1.80;;
11191;SDS011;5652;48.406;10.820;2022-09-09T03:17:14;2.43;;;1.60;;
11191;SDS011;5652;48.406;10.820;2022-09-09T03:19:42;6.32;;;1.77;;
11191;SDS011;5652;48.406;10.820;2022-09-09T03:22:09;2.90;;;1.60;;
11191;SDS011;5652;48.406;10.820;2022-09-09T03:24:38;3.78;;;1.73;;
11191;SDS011;5652;48.406;10.820;2022-09-09T03:27:07;2.40;;;1.45;;
11191;SDS011;5652;48.406;10.820;2022-09-09T03:29:34;3.95;;;1.90;;
11191;SDS011;5652;48.406;10.820;2022-09-09T03:32:02;2.40;;;1.85;;
11191;SDS011;5652;48.406;10.820;2022-09-09T03:34:29;3.90;;;1.67;;
11191;SDS011;5652;48.406;10.820;2022-09-09T03:36:56;2.58;;;1.83;;
11191;SDS011;5652;48.406;10.820;2022-09-09T03:39:24;5.72;;;1.75;;
11191;SDS011;5652;48.406;10.820;2022-09-09T03:41:51;2.13;;;1.73;;
11191;SDS011;5652;48.406;10.820;2022-09-09T03:44:19;2.70;;;1.90;;
11191;SDS011;5652;48.406;10.820;2022-09-09T03:46:46;5.28;;;1.90;;
11191;SDS011;5652;48.406;10.820;2022-09-09T03:49:14;2.65;;;1.80;;
11191;SDS011;5652;48.406;10.820;2022-09-09T03:51:41;2.75;;;1.77;;
11191;SDS011;5652;48.406;10.820;2022-09-09T03:54:09;4.60;;;1.60;;
11191;SDS011;5652;48.406;10.820;2022-09-09T03:56:36;2.00;;;1.50;;
11191;SDS011;5652;48.406;10.820;2022-09-09T03:59:04;2.70;;;2.00;;
11191;SDS011;5652;48.406;10.820;2022-09-09T04:01:32;1.77;;;1.67;;
11191;SDS011;5652;48.406;10.820;2022-09-09T04:03:59;1.70;;;1.52;;
11191;SDS011;5652;48.406;10.820;2022-09-09T04:06:27;2.70;;;1.77;;
11191;SDS011;5652;48.406;10.820;2022-09-09T04:08:55;2.30;;;1.65;;
11191;SDS011;5652;48.406;10.820;2022-09-09T04:11:22;5.85;;;2.03;;
11191;SDS011;5652;48.406;10.820;2022-09-09T04:13:49;5.13;;;1.90;;
11191;SDS011;5652;48.406;10.820;2022-09-09T04:16:16;5.25;;;1.98;;
11191;SDS011;5652;48.406;10.820;2022-09-09T04:18:45;2.60;;;1.85;;
11191;SDS011;5652;48.406;10.820;2022-09-09T04:21:12;2.65;;;1.90;;
11191;SDS011;5652;48.406;10.820;2022-09-09T04:23:40;3.30;;;1.80;;
11191;SDS011;5652;48.406;10.820;2022-09-09T04:26:07;2.30;;;1.90;;
11191;SDS011;5652;48.406;10.820;2022-09-09T04:28:35;2.40;;;1.80;;
11191;SDS011;5652;48.406;10.820;2022-09-09T04:31:06;3.50;;;2.10;;
11191;SDS011;5652;48.406;10.820;2022-09-09T04:33:34;3.50;;;1.80;;
11191;SDS011;5652;48.406;10.820;2022-09-09T04:36:03;4.50;;;2.00;;
11191;SDS011;5652;48.406;10.820;2022-09-09T04:38:31;3.35;;;1.70;;
11191;SDS011;5652;48.406;10.820;2022-09-09T04:40:58;2.13;;;1.60;;
11191;SDS011;5652;48.406;10.820;2022-09-09T04:43:26;6.27;;;2.00;;
11191;SDS011;5652;48.406;10.820;2022-09-09T04:45:55;5.10;;;1.90;;
11191;SDS011;5652;48.406;10.820;2022-09-09T04:48:23;6.20;;;2.08;;
11191;SDS011;5652;48.406;10.820;2022-09-09T04:50:54;4.18;;;1.83;;
11191;SDS011;5652;48.406;10.820;2022-09-09T04:53:23;2.30;;;1.70;;
11191;SDS011;5652;48.406;10.820;2022-09-09T04:55:51;4.28;;;1.70;;
11191;SDS011;5652;48.406;10.820;2022-09-09T04:58:18;5.57;;;1.60;;
11191;SDS011;5652;48.406;10.820;2022-09-09T05:00:47;4.63;;;1.60;;
11191;SDS011;5652;48.406;10.820;2022-09-09T05:03:15;3.40;;;1.58;;
11191;SDS011;5652;48.406;10.820;2022-09-09T05:05:44;3.30;;;1.60;;
11191;SDS011;5652;48.406;10.820;2022-09-09T05:08:12;3.58;;;1.63;;
11191;SDS011;5652;48.406;10.820;2022-09-09T05:10:42;3.47;;;1.40;;
11191;SDS011;5652;48.406;10.820;2022-09-09T05:13:10;2.15;;;1.70;;
11191;SDS011;5652;48.406;10.820;2022-09-09T05:15:37;3.77;;;1.80;;
11191;SDS011;5652;48.406;10.820;2022-09-09T05:18:04;3.30;;;1.67;;
11191;SDS011;5652;48.406;10.820;2022-09-09T05:20:31;2.00;;;1.50;;
11191;SDS011;5652;48.406;10.820;2022-09-09T05:22:58;5.55;;;1.80;;
11191;SDS011;5652;48.406;10.820;2022-09-09T05:25:26;5.93;;;2.10;;
11191;SDS011;5652;48.406;10.820;2022-09-09T05:27:54;3.38;;;1.83;;
11191;SDS011;5652;48.406;10.820;2022-09-09T05:30:21;3.92;;;1.88;;
11191;SDS011;5652;48.406;10.820;2022-09-09T05:32:51;2.80;;;1.67;;
11191;SDS011;5652;48.406;10.820;2022-09-09T05:35:18;4.53;;;1.85;;
11191;SDS011;5652;48.406;10.820;2022-09-09T05:37:45;3.58;;;1.75;;
11191;SDS011;5652;48.406;10.820;2022-09-09T05:40:13;5.07;;;1.88;;
11191;SDS011;5652;48.406;10.820;2022-09-09T05:42:40;2.20;;;1.90;;
11191;SDS011;5652;48.406;10.820;2022-09-09T05:45:09;6.38;;;1.80;;
11191;SDS011;5652;48.406;10.820;2022-09-09T05:47:36;3.70;;;1.70;;
11191;SDS011;5652;48.406;10.820;2022-09-09T05:50:04;2.90;;;1.70;;
11191;SDS011;5652;48.406;10.820;2022-09-09T05:52:31;3.97;;;1.70;;
11191;SDS011;5652;48.406;10.820;2022-09-09T05:54:59;5.38;;;1.70;;
11191;SDS011;5652;48.406;10.820;2022-09-09T05:57:26;4.70;;;1.85;;
11191;SDS011;5652;48.406;10.820;2022-09-09T05:59:53;2.55;;;1.80;;
11191;SDS011;5652;48.406;10.820;2022-09-09T06:02:22;4.22;;;1.80;;
11191;SDS011;5652;48.406;10.820;2022-09-09T06:04:49;5.00;;;1.80;;
11191;SDS011;5652;48.406;10.820;2022-09-09T06:07:16;3.63;;;1.90;;
11191;SDS011;5652;48.406;10.820;2022-09-09T06:09:44;4.43;;;1.80;;
11191;SDS011;5652;48.406;10.820;2022-09-09T06:12:11;5.20;;;1.70;;
11191;SDS011;5652;48.406;10.820;2022-09-09T06:14:38;3.90;;;1.70;;
11191;SDS011;5652;48.406;10.820;2022-09-09T06:17:05;2.88;;;1.80;;
11191;SDS011;5652;48.406;10.820;2022-09-09T06:19:34;3.10;;;1.50;;
11191;SDS011;5652;48.406;10.820;2022-09-09T06:22:01;2.63;;;1.80;;
11191;SDS011;5652;48.406;10.820;2022-09-09T06:24:28;5.53;;;1.80;;
11191;SDS011;5652;48.406;10.820;2022-09-09T06:26:56;1.95;;;1.75;;
11191;SDS011;5652;48.406;10.820;2022-09-09T06:29:23;2.25;;;1.80;;
11191;SDS011;5652;48.406;10.820;2022-09-09T06:31:50;5.37;;;2.00;;
11191;SDS011;5652;48.406;10.820;2022-09-09T06:34:18;3.92;;;1.67;;
11191;SDS011;5652;48.406;10.820;2022-09-09T06:36:47;3.45;;;1.63;;
11191;SDS011;5652;48.406;10.820;2022-09-09T06:39:15;4.40;;;1.80;;
11191;SDS011;5652;48.406;10.820;2022-09-09T06:41:42;4.07;;;1.90;;
11191;SDS011;5652;48.406;10.820;2022-09-09T06:44:09;3.63;;;1.58;;
11191;SDS011;5652;48.406;10.820;2022-09-09T06:46:37;4.00;;;1.52;;
11191;SDS011;5652;48.406;10.820;2022-09-09T06:49:05;3.05;;;1.70;;
11191;SDS011;5652;48.406;10.820;2022-09-09T06:51:33;1.85;;;1.60;;
11191;SDS011;5652;48.406;10.820;2022-09-09T06:54:03;3.05;;;1.60;;
11191;SDS011;5652;48.406;10.820;2022-09-09T06:56:31;4.25;;;1.80;;
11191;SDS011;5652;48.406;10.820;2022-09-09T06:59:00;1.77;;;1.60;;
11191;SDS011;5652;48.406;10.820;2022-09-09T07:01:29;2.70;;;1.85;;
11191;SDS011;5652;48.406;10.820;2022-09-09T07:03:57;2.15;;;1.63;;
11191;SDS011;5652;48.406;10.820;2022-09-09T07:06:25;3.00;;;1.50;;
11191;SDS011;5652;48.406;10.820;2022-09-09T07:08:54;2.13;;;1.70;;
11191;SDS011;5652;48.406;10.820;2022-09-09T07:11:24;2.42;;;1.60;;
11191;SDS011;5652;48.406;10.820;2022-09-09T07:13:52;2.20;;;1.83;;
11191;SDS011;5652;48.406;10.820;2022-09-09T07:16:20;2.88;;;1.65;;
11191;SDS011;5652;48.406;10.820;2022-09-09T07:18:51;2.38;;;1.77;;
11191;SDS011;5652;48.406;10.820;2022-09-09T07:21:23;2.70;;;1.70;;
11191;SDS011;5652;48.406;10.820;2022-09-09T07:23:51;4.10;;;1.88;;
11191;SDS011;5652;48.406;10.820;2022-09-09T07:26:19;3.72;;;1.80;;
11191;SDS011;5652;48.406;10.820;2022-09-09T07:28:48;5.90;;;2.00;;
11191;SDS011;5652;48.406;10.820;2022-09-09T07:31:16;3.13;;;2.07;;
11191;SDS011;5652;48.406;10.820;2022-09-09T07:33:43;5.60;;;2.15;;
11191;SDS011;5652;48.406;10.820;2022-09-09T07:36:14;3.30;;;1.88;;
11191;SDS011;5652;48.406;10.820;2022-09-09T07:38:42;2.45;;;1.70;;
11191;SDS011;5652;48.406;10.820;2022-09-09T07:41:10;3.70;;;1.80;;
11191;SDS011;5652;48.406;10.820;2022-09-09T07:43:38;3.25;;;2.00;;
11191;SDS011;5652;48.406;10.820;2022-09-09T07:46:07;2.92;;;1.95;;
11191;SDS011;5652;48.406;10.820;2022-09-09T07:48:34;2.33;;;1.80;;
11191;SDS011;5652;48.406;10.820;2022-09-09T07:51:03;3.00;;;2.22;;
11191;SDS011;5652;48.406;10.820;2022-09-09T07:53:30;3.20;;;2.00;;
11191;SDS011;5652;48.406;10.820;2022-09-09T07:56:01;3.10;;;2.05;;
11191;SDS011;5652;48.406;10.820;2022-09-09T07:58:29;3.72;;;2.35;;
11191;SDS011;5652;48.406;10.820;2022-09-09T08:00:56;2.78;;;2.15;;
11191;SDS011;5652;48.406;10.820;2022-09-09T08:03:24;5.25;;;2.20;;
11191;SDS011;5652;48.406;10.820;2022-09-09T08:05:52;3.92;;;1.98;;
11191;SDS011;5652;48.406;10.820;2022-09-09T08:08:19;2.30;;;1.90;;
11191;SDS011;5652;48.406;10.820;2022-09-09T08:10:46;4.55;;;1.90;;
11191;SDS011;5652;48.406;10.820;2022-09-09T08:13:13;4.28;;;1.88;;
11191;SDS011;5652;48.406;10.820;2022-09-09T08:15:42;4.20;;;1.70;;
11191;SDS011;5652;48.406;10.820;2022-09-09T08:18:09;2.58;;;1.70;;
11191;SDS011;5652;48.406;10.820;2022-09-09T08:20:38;2.33;;;1.90;;
11191;SDS011;5652;48.406;10.820;2022-09-09T08:23:05;3.50;;;1.95;;
11191;SDS011;5652;48.406;10.820;2022-09-09T08:25:32;3.78;;;1.80;;
11191;SDS011;5652;48.406;10.820;2022-09-09T08:28:00;2.97;;;1.80;;
11191;SDS011;5652;48.406;10.820;2022-09-09T08:30:28;2.38;;;1.90;;
11191;SDS011;5652;48.406;10.820;2022-09-09T08:32:55;1.85;;;1.60;;
11191;SDS011;5652;48.406;10.820;2022-09-09T08:35:25;2.13;;;1.50;;
11191;SDS011;5652;48.406;10.820;2022-09-09T08:37:54;3.60;;;1.70;;
11191;SDS011;5652;48.406;10.820;2022-09-09T08:40:22;1.77;;;1.30;;
11191;SDS011;5652;48.406;10.820;2022-09-09T08:42:52;2.03;;;1.10;;
11191;SDS011;5652;48.406;10.820;2022-09-09T08:45:26;2.20;;;1.40;;
11191;SDS011;5652;48.406;10.820;2022-09-09T08:48:01;3.72;;;1.50;;
11191;SDS011;5652;48.406;10.820;2022-09-09T08:50:29;1.70;;;1.20;;
11191;SDS011;5652;48.406;10.820;2022-09-09T08:53:01;3.78;;;1.40;;
11191;SDS011;5652;48.406;10.820;2022-09-09T08:55:35;2.90;;;1.40;;
11191;SDS011;5652;48.406;10.820;2022-09-09T08:58:05;2.13;;;1.30;;
11191;SDS011;5652;48.406;10.820;2022-09-09T09:00:36;2.33;;;1.40;;
11191;SDS011;5652;48.406;10.820;2022-09-09T09:03:09;2.03;;;1.30;;
11191;SDS011;5652;48.406;10.820;2022-09-09T09:05:42;2.35;;;1.30;;
11191;SDS011;5652;48.406;10.820;2022-09-09T09:08:16;1.88;;;1.30;;
11191;SDS011;5652;48.406;10.820;2022-09-09T09:10:48;3.33;;;1.73;;
11191;SDS011;5652;48.406;10.820;2022-09-09T09:13:17;2.28;;;1.30;;
11191;SDS011;5652;48.406;10.820;2022-09-09T09:15:46;2.70;;;1.35;;
11191;SDS011;5652;48.406;10.820;2022-09-09T09:18:16;2.07;;;1.43;;
11191;SDS011;5652;48.406;10.820;2022-09-09T09:20:47;2.22;;;1.42;;
11191;SDS011;5652;48.406;10.820;2022-09-09T09:23:19;3.92;;;1.50;;
11191;SDS011;5652;48.406;10.820;2022-09-09T09:25:48;2.87;;;1.50;;
11191;SDS011;5652;48.406;10.820;2022-09-09T09:28:17;4.57;;;1.40;;
11191;SDS011;5652;48.406;10.820;2022-09-09T09:30:48;2.42;;;1.50;;
11191;SDS011;5652;48.406;10.820;2022-09-09T09:33:18;3.78;;;1.50;;
11191;SDS011;5652;48.406;10.820;2022-09-09T09:35:48;3.45;;;1.50;;
11191;SDS011;5652;48.406;10.820;2022-09-09T09:38:20;4.32;;;1.60;;
11191;SDS011;5652;48.406;10.820;2022-09-09T09:40:48;3.08;;;1.60;;
11191;SDS011;5652;48.406;10.820;2022-09-09T09:43:18;3.13;;;1.60;;
11191;SDS011;5652;48.406;10.820;2022-09-09T09:45:47;2.90;;;1.40;;
11191;SDS011;5652;48.406;10.820;2022-09-09T09:48:14;2.53;;;1.30;;
11191;SDS011;5652;48.406;10.820;2022-09-09T09:50:46;3.90;;;1.30;;
11191;SDS011;5652;48.406;10.820;2022-09-09T09:53:21;2.15;;;1.30;;
11191;SDS011;5652;48.406;10.820;2022-09-09T09:55:52;2.00;;;1.30;;
11191;SDS011;5652;48.406;10.820;2022-09-09T09:58:20;1.70;;;1.20;;
11191;SDS011;5652;48.406;10.820;2022-09-09T10:00:47;2.47;;;1.30;;
11191;SDS011;5652;48.406;10.820;2022-09-09T10:03:20;2.20;;;1.33;;
11191;SDS011;5652;48.406;10.820;2022-09-09T10:05:48;3.00;;;1.60;;
11191;SDS011;5652;48.406;10.820;2022-09-09T10:08:16;3.72;;;1.50;;
11191;SDS011;5652;48.406;10.820;2022-09-09T10:10:57;3.08;;;1.30;;
11191;SDS011;5652;48.406;10.820;2022-09-09T10:13:29;2.28;;;1.33;;
11191;SDS011;5652;48.406;10.820;2022-09-09T10:16:15;2.83;;;1.20;;
11191;SDS011;5652;48.406;10.820;2022-09-09T10:18:49;3.33;;;1.40;;
11191;SDS011;5652;48.406;10.820;2022-09-09T10:21:25;3.08;;;1.25;;
11191;SDS011;5652;48.406;10.820;2022-09-09T10:24:02;1.90;;;1.30;;
11191;SDS011;5652;48.406;10.820;2022-09-09T10:26:35;2.78;;;1.25;;
11191;SDS011;5652;48.406;10.820;2022-09-09T10:29:09;3.15;;;1.35;;
11191;SDS011;5652;48.406;10.820;2022-09-09T10:31:41;2.83;;;1.37;;
11191;SDS011;5652;48.406;10.820;2022-09-09T10:34:13;2.80;;;1.10;;
11191;SDS011;5652;48.406;10.820;2022-09-09T10:36:44;2.35;;;1.23;;
11191;SDS011;5652;48.406;10.820;2022-09-09T10:39:15;4.75;;;1.30;;
11191;SDS011;5652;48.406;10.820;2022-09-09T10:41:48;2.55;;;1.38;;
11191;SDS011;5652;48.406;10.820;2022-09-09T10:44:27;2.83;;;1.40;;
11191;SDS011;5652;48.406;10.820;2022-09-09T10:47:10;2.88;;;1.40;;
11191;SDS011;5652;48.406;10.820;2022-09-09T10:49:47;3.35;;;1.45;;
11191;SDS011;5652;48.406;10.820;2022-09-09T10:52:18;4.43;;;1.50;;
11191;SDS011;5652;48.406;10.820;2022-09-09T10:54:50;4.72;;;1.40;;
11191;SDS011;5652;48.406;10.820;2022-09-09T10:57:24;3.33;;;1.20;;
11191;SDS011;5652;48.406;10.820;2022-09-09T10:59:53;1.85;;;1.25;;
11191;SDS011;5652;48.406;10.820;2022-09-09T11:02:25;4.32;;;1.20;;
11191;SDS011;5652;48.406;10.820;2022-09-09T11:04:54;2.92;;;1.50;;
11191;SDS011;5652;48.406;10.820;2022-09-09T11:07:24;4.40;;;1.60;;
11191;SDS011;5652;48.406;10.820;2022-09-09T11:09:54;6.30;;;1.40;;
11191;SDS011;5652;48.406;10.820;2022-09-09T11:12:26;5.63;;;1.40;;
11191;SDS011;5652;48.406;10.820;2022-09-09T11:14:54;1.77;;;1.38;;
11191;SDS011;5652;48.406;10.820;2022-09-09T11:17:25;3.13;;;1.30;;
11191;SDS011;5652;48.406;10.820;2022-09-09T11:19:53;3.47;;;1.50;;
11191;SDS011;5652;48.406;10.820;2022-09-09T11:22:27;3.03;;;1.27;;
11191;SDS011;5652;48.406;10.820;2022-09-09T11:24:57;3.00;;;1.10;;
11191;SDS011;5652;48.406;10.820;2022-09-09T11:27:27;3.17;;;1.23;;
11191;SDS011;5652;48.406;10.820;2022-09-09T11:32:54;3.28;;;1.30;;
11191;SDS011;5652;48.406;10.820;2022-09-09T11:35:29;2.53;;;1.38;;
11191;SDS011;5652;48.406;10.820;2022-09-09T11:40:43;2.10;;;1.23;;
11191;SDS011;5652;48.406;10.820;2022-09-09T11:43:13;2.72;;;1.40;;
11191;SDS011;5652;48.406;10.820;2022-09-09T11:45:41;2.80;;;1.37;;
11191;SDS011;5652;48.406;10.820;2022-09-09T11:48:21;2.37;;;1.40;;
11191;SDS011;5652;48.406;10.820;2022-09-09T11:50:56;1.98;;;1.27;;
11191;SDS011;5652;48.406;10.820;2022-09-09T11:53:24;3.28;;;1.20;;
11191;SDS011;5652;48.406;10.820;2022-09-09T11:56:06;3.70;;;1.30;;
11191;SDS011;5652;48.406;10.820;2022-09-09T11:58:37;5.93;;;1.40;;
11191;SDS011;5652;48.406;10.820;2022-09-09T12:01:15;2.95;;;1.40;;
11191;SDS011;5652;48.406;10.820;2022-09-09T12:03:43;2.20;;;1.30;;
11191;SDS011;5652;48.406;10.820;2022-09-09T12:06:13;2.80;;;1.30;;
11191;SDS011;5652;48.406;10.820;2022-09-09T12:08:42;2.28;;;1.10;;
11191;SDS011;5652;48.406;10.820;2022-09-09T12:11:10;2.47;;;1.20;;
11191;SDS011;5652;48.406;10.820;2022-09-09T12:13:39;2.00;;;1.10;;
11191;SDS011;5652;48.406;10.820;2022-09-09T12:16:26;3.03;;;1.30;;
11191;SDS011;5652;48.406;10.820;2022-09-09T12:19:02;2.72;;;1.30;;
11191;SDS011;5652;48.406;10.820;2022-09-09T12:21:31;2.28;;;1.10;;
11191;SDS011;5652;48.406;10.820;2022-09-09T12:24:02;2.72;;;1.17;;
11191;SDS011;5652;48.406;10.820;2022-09-09T12:26:32;2.17;;;1.10;;
11191;SDS011;5652;48.406;10.820;2022-09-09T12:29:04;2.97;;;1.42;;
11191;SDS011;5652;48.406;10.820;2022-09-09T12:31:35;2.72;;;1.20;;
11191;SDS011;5652;48.406;10.820;2022-09-09T12:34:09;2.75;;;0.98;;
11191;SDS011;5652;48.406;10.820;2022-09-09T12:36:37;3.87;;;1.07;;
11191;SDS011;5652;48.406;10.820;2022-09-09T12:39:09;2.65;;;1.20;;
11191;SDS011;5652;48.406;10.820;2022-09-09T12:41:37;2.73;;;1.03;;
11191;SDS011;5652;48.406;10.820;2022-09-09T12:44:06;2.17;;;1.20;;
11191;SDS011;5652;48.406;10.820;2022-09-09T12:46:34;4.85;;;1.48;;
11191;SDS011;5652;48.406;10.820;2022-09-09T12:49:04;4.22;;;1.40;;
11191;SDS011;5652;48.406;10.820;2022-09-09T12:51:31;3.63;;;1.23;;
11191;SDS011;5652;48.406;10.820;2022-09-09T12:53:59;2.87;;;1.27;;
11191;SDS011;5652;48.406;10.820;2022-09-09T12:56:27;5.60;;;1.50;;
11191;SDS011;5652;48.406;10.820;2022-09-09T12:58:56;3.78;;;1.33;;
11191;SDS011;5652;48.406;10.820;2022-09-09T13:01:27;1.83;;;1.15;;
11191;SDS011;5652;48.406;10.820;2022-09-09T13:03:56;3.00;;;1.25;;
11191;SDS011;5652;48.406;10.820;2022-09-09T13:06:23;2.60;;;1.10;;
11191;SDS011;5652;48.406;10.820;2022-09-09T13:08:51;3.40;;;1.30;;
11191;SDS011;5652;48.406;10.820;2022-09-09T13:11:20;5.63;;;1.53;;
11191;SDS011;5652;48.406;10.820;2022-09-09T13:13:52;3.58;;;1.10;;
11191;SDS011;5652;48.406;10.820;2022-09-09T13:16:21;1.77;;;0.95;;
11191;SDS011;5652;48.406;10.820;2022-09-09T13:18:50;1.95;;;1.05;;
11191;SDS011;5652;48.406;10.820;2022-09-09T13:21:30;3.00;;;1.23;;
11191;SDS011;5652;48.406;10.820;2022-09-09T13:24:00;3.00;;;1.40;;
11191;SDS011;5652;48.406;10.820;2022-09-09T13:26:29;2.30;;;1.07;;
11191;SDS011;5652;48.406;10.820;2022-09-09T13:29:07;3.40;;;1.23;;
11191;SDS011;5652;48.406;10.820;2022-09-09T13:31:35;3.17;;;1.17;;
11191;SDS011;5652;48.406;10.820;2022-09-09T13:34:11;3.47;;;1.25;;
11191;SDS011;5652;48.406;10.820;2022-09-09T13:36:39;3.03;;;1.10;;
11191;SDS011;5652;48.406;10.820;2022-09-09T13:39:13;2.15;;;1.10;;
11191;SDS011;5652;48.406;10.820;2022-09-09T13:41:43;2.47;;;1.20;;
11191;SDS011;5652;48.406;10.820;2022-09-09T13:44:14;2.53;;;1.40;;
11191;SDS011;5652;48.406;10.820;2022-09-09T13:46:44;2.78;;;1.20;;
11191;SDS011;5652;48.406;10.820;2022-09-09T13:49:20;3.45;;;1.20;;
11191;SDS011;5652;48.406;10.820;2022-09-09T13:51:49;3.15;;;1.20;;
11191;SDS011;5652;48.406;10.820;2022-09-09T13:54:19;4.67;;;1.07;;
11191;SDS011;5652;48.406;10.820;2022-09-09T13:56:46;2.92;;;1.30;;
11191;SDS011;5652;48.406;10.820;2022-09-09T13:59:17;4.70;;;1.17;;
11191;SDS011;5652;48.406;10.820;2022-09-09T14:01:46;3.75;;;1.40;;
11191;SDS011;5652;48.406;10.820;2022-09-09T14:04:14;1.05;;;0.90;;
11191;SDS011;5652;48.406;10.820;2022-09-09T14:06:43;1.33;;;0.80;;
11191;SDS011;5652;48.406;10.820;2022-09-09T14:09:11;2.15;;;0.98;;
11191;SDS011;5652;48.406;10.820;2022-09-09T14:11:39;0.80;;;0.80;;
11191;SDS011;5652;48.406;10.820;2022-09-09T14:14:06;1.00;;;0.82;;
11191;SDS011;5652;48.406;10.820;2022-09-09T14:16:34;2.13;;;0.90;;
11191;SDS011;5652;48.406;10.820;2022-09-09T14:19:04;0.85;;;0.80;;
11191;SDS011;5652;48.406;10.820;2022-09-09T14:21:33;1.10;;;0.82;;
11191;SDS011;5652;48.406;10.820;2022-09-09T14:24:02;2.75;;;0.90;;
11191;SDS011;5652;48.406;10.820;2022-09-09T14:26:30;2.15;;;1.00;;
11191;SDS011;5652;48.406;10.820;2022-09-09T14:28:58;2.07;;;1.10;;
11191;SDS011;5652;48.406;10.820;2022-09-09T14:31:25;1.40;;;1.00;;
11191;SDS011;5652;48.406;10.820;2022-09-09T14:33:53;1.77;;;0.90;;
11191;SDS011;5652;48.406;10.820;2022-09-09T14:36:21;0.88;;;0.70;;
11191;SDS011;5652;48.406;10.820;2022-09-09T14:38:49;2.45;;;0.95;;
11191;SDS011;5652;48.406;10.820;2022-09-09T14:41:18;2.58;;;1.15;;
11191;SDS011;5652;48.406;10.820;2022-09-09T14:43:47;1.77;;;0.95;;
11191;SDS011;5652;48.406;10.820;2022-09-09T14:46:15;2.60;;;1.00;;
11191;SDS011;5652;48.406;10.820;2022-09-09T14:48:43;2.87;;;1.27;;
11191;SDS011;5652;48.406;10.820;2022-09-09T14:51:11;1.67;;;1.10;;
11191;SDS011;5652;48.406;10.820;2022-09-09T14:53:39;1.05;;;0.82;;
11191;SDS011;5652;48.406;10.820;2022-09-09T14:56:08;1.90;;;1.00;;
11191;SDS011;5652;48.406;10.820;2022-09-09T14:58:37;1.38;;;1.02;;
11191;SDS011;5652;48.406;10.820;2022-09-09T15:01:04;2.22;;;1.00;;
11191;SDS011;5652;48.406;10.820;2022-09-09T15:03:32;1.50;;;1.00;;
11191;SDS011;5652;48.406;10.820;2022-09-09T15:06:04;2.17;;;0.90;;
11191;SDS011;5652;48.406;10.820;2022-09-09T15:08:31;1.67;;;0.80;;
11191;SDS011;5652;48.406;10.820;2022-09-09T15:10:59;1.55;;;0.98;;